Tiempo atmosférico en la estación meteorológica de Olmedo, Depósito de Agua, Valladolid (786 m.)



Fecha
DESCASC
Temp. máxima en grados centígrados (hora)
DESCASC
Temp. mínima en grados centígrados (hora)
DESCASC
Temp. media en grados centígrados
DESCASC
Racha de viento máxima en m/sg (hora)
DESCASC
Velocidad máxima media en intervalos de 10 minutos(hora)
DESCASC
Precipitaciones diarias en mm
DESCASC
Precipitaciones de 00:00 a 06:00 en mm
DESCASC
Precipitaciones de 06:00 a 12:00 en mm
DESCASC
Precipitaciones de 12:00 a 18:00 en mm
DESCASC
Precipitaciones de 18:00 a 24:00 en mm
DESCASC
23-06-2019 30.7 (15:20) 13 (06:50) 21.9 10.56 (13:40) 6.67 (14:20) 0 0 0 0 0
22-06-2019 31 (17:30) 9.6 (07:00) 20.3 10.83 (19:10) 6.39 (18:50) 0 0 0 0 0
21-06-2019 24.7 (17:20) 10.4 (08:00) 17.6 11.39 (00:30) 7.22 (00:40) 0 0 0 0 0
20-06-2019 26.7 (15:40) 14.2 (00:00) 20.5 8.61 (18:40) 5.83 (23:50) 9.2 0 0 0 9.2
19-06-2019 -- (--) -- (--) -- -- (--) -- (--) -- -- -- -- 0
18-06-2019 -- (--) -- (--) -- -- (--) -- (--) -- 0 0 0 --
17-06-2019 30.9 (16:10) 10.3 (00:00) 20.6 11.39 (19:00) 6.94 (19:00) 0 0 0 0 0
16-06-2019 29.2 (17:30) 6.3 (00:00) 17.8 7.22 (12:30) 4.17 (23:40) 0 0 0 0 0
15-06-2019 23.7 (19:40) 6.1 (00:00) 14.9 7.78 (00:30) 4.17 (04:50) 0 0 0 0 0
14-06-2019 22.8 (15:40) 5.5 (00:00) 14.1 13.06 (16:10) 7.22 (15:30) 0 0 0 0 0
13-06-2019 25.6 (18:00) 3.8 (00:00) 14.7 11.67 (19:30) 6.67 (19:00) 0 0 0 0 0
12-06-2019 22.3 (18:50) 4.4 (00:00) 13.3 8.61 (15:10) 4.72 (16:20) 0 0 0 0 0
11-06-2019 19.8 (17:10) 9.5 (00:00) 14.6 10.83 (19:20) 5.83 (18:20) 0 0 0 0 0
10-06-2019 22.5 (18:40) 6.8 (00:00) 14.7 11.11 (22:40) 5.28 (23:00) 0 0 0 0 0
09-06-2019 23.7 (16:10) 7.9 (00:00) 15.8 12.5 (20:10) 6.67 (20:10) 0 0 0 0 0
08-06-2019 26.8 (18:30) 5 (00:00) 15.9 11.94 (19:00) 6.67 (19:10) 0 0 0 0 0
07-06-2019 18.3 (18:50) 6.5 (00:00) 12.4 10.56 (09:00) 6.67 (04:40) 0.8 0.8 0 0 0
06-06-2019 23.6 (17:50) 5 (00:00) 14.3 18.89 (23:30) 11.94 (19:10) 2.8 0 0 0 2.8
05-06-2019 19.1 (17:00) 7.8 (00:00) 13.5 11.39 (18:20) 6.39 (02:00) 4.6 4.6 0 0 0
04-06-2019 24.7 (16:40) 11.8 (00:00) 18.3 12.78 (18:20) 7.78 (18:20) 0 0 0 0 0
03-06-2019 31.3 (18:30) 14.2 (00:00) 22.7 13.06 (19:10) 8.89 (20:40) 0 0 0 0 0
02-06-2019 32 (17:00) 15.2 (00:00) 23.6 10.83 (15:50) 5.83 (15:50) 0 0 0 0 0
01-06-2019 33.3 (16:30) 11 (00:00) 22.1 7.5 (14:30) 5.28 (01:20) 0 0 0 0 0
31-05-2019 31.8 (18:50) 12.6 (00:00) 22.2 7.22 (13:30) 3.89 (01:00) 0 0 0 0 0
30-05-2019 29.5 (16:50) 7.5 (00:00) 18.5 8.89 (15:40) 5.28 (18:20) 0 0 0 0 0
29-05-2019 22.9 (17:40) 6.9 (00:00) 14.9 13.33 (18:50) 6.94 (14:00) 0 0 0 0 0
28-05-2019 22.2 (19:00) 8.4 (00:00) 15.3 10.83 (21:50) 6.94 (21:30) 0 0 0 0 0

Gráficas

Temp. máximas Temp. mínimas Temp. medias Precipitaciones Rachas de viento máximas Velocidades máximas media en intervalos de 10 minutos

Datos horarios

Fecha y hora oficial Temperatura (ºC) Velocidad del viento (km/h) Dirección del viento Racha (km/h) Dirección de racha Precipitación (mm) Presión (hPa) Tendencia (hPa) Humedad (%)
2019-06-26 23:00:00 26.2 5 Noroeste 14 Noroeste 0 -- -- 45
2019-06-26 22:00:00 29.4 9 Oeste 28 Sudoeste 0 -- -- 35
2019-06-26 21:00:00 32.2 19 Sudoeste 32 Sudoeste 0 -- -- 31
2019-06-26 20:00:00 33.5 26 Sudoeste 37 Sudoeste 0 -- -- 29
2019-06-26 19:00:00 34.3 23 Sudoeste 42 Sur 0 -- -- 28
2019-06-26 18:00:00 34 19 Sudeste 52 Sudoeste 0 -- -- 28
2019-06-26 17:00:00 34 18 Sur 46 Sudoeste 0 -- -- 28
2019-06-26 16:00:00 33.5 30 Sur 48 Sudoeste 0 -- -- 29
2019-06-26 15:00:00 33.1 22 Sur 50 Sudoeste 0 -- -- 30
2019-06-26 14:00:00 32 29 Sur 44 Sur 0 -- -- 32
2019-06-26 13:00:00 31 21 Sur 42 Sur 0 -- -- 33
2019-06-26 12:00:00 30.1 24 Sur 36 Sur 0 -- -- 33
2019-06-26 11:00:00 28.4 21 Sur 35 Sur 0 -- -- 34
2019-06-26 10:00:00 26.9 26 Sur 36 Sur 0 -- -- 36
2019-06-26 09:00:00 24.7 23 Sur 33 Sur 0 -- -- 41
2019-06-26 08:00:00 22.8 22 Sur 39 Sudeste 0 -- -- 46
2019-06-26 07:00:00 15.6 17 Sudeste 21 Este 0 -- -- 78
2019-06-26 06:00:00 16 15 Este 19 Este 0 -- -- 78
2019-06-26 05:00:00 17.3 8 Sudeste 11 Sur 0 -- -- 75
2019-06-26 04:00:00 17.8 8 Sudoeste 12 Sudoeste 0 -- -- 75
2019-06-26 03:00:00 18.6 8 Sur 14 Sur 0 -- -- 72
2019-06-26 02:00:00 18.4 9 Sur 10 Sur 0 -- -- 72
2019-06-26 01:00:00 19.8 0 Calma 5 Norte 0 -- -- 66
2019-06-26 00:00:00 21.2 3 Noroeste 10 Norte 0 -- -- 64
2019-06-25 23:00:00 22.5 8 Norte 19 Norte 0 -- -- 60
2019-06-25 22:00:00 24.3 13 Norte 33 Norte 0 -- -- 55
2019-06-25 21:00:00 27.1 17 Norte 30 Norte 0 -- -- 47
2019-06-25 20:00:00 29.1 15 Noroeste 28 Noroeste 0 -- -- 42
2019-06-25 19:00:00 29.8 12 Noroeste 29 Oeste 0 -- -- 40
2019-06-25 18:00:00 30 14 Noroeste 30 Noroeste 0 -- -- 38
2019-06-25 17:00:00 29.8 5 Oeste 26 Noroeste 0 -- -- 37
2019-06-25 16:00:00 29.6 7 Oeste 20 Noroeste 0 -- -- 37
2019-06-25 15:00:00 27.8 11 Noroeste 21 Noroeste 0 -- -- 43
2019-06-25 14:00:00 28 7 Noroeste 19 Oeste 0 -- -- 42
2019-06-25 13:00:00 26.7 6 Norte 19 Oeste 0 -- -- 45
2019-06-25 12:00:00 24.7 4 Noroeste 13 Oeste 0 -- -- 51
2019-06-25 11:00:00 20.8 6 Este 13 Este 0 -- -- 60
2019-06-25 10:00:00 17.5 5 Nordeste 7 Norte 0 -- -- 70
2019-06-25 09:00:00 15.2 2 Este 8 Sudeste 0 -- -- 78
2019-06-25 08:00:00 13.5 2 Este 19 Sudeste 0 -- -- 78
2019-06-25 07:00:00 11.7 15 Sudeste 21 Sudeste 0 -- -- 83
2019-06-25 06:00:00 12.5 10 Sudeste 14 Este 0 -- -- 81
2019-06-25 05:00:00 12.6 8 Sudeste 10 Sudeste 0 -- -- 80
2019-06-25 04:00:00 13.5 5 Sudeste 8 Sudeste 0 -- -- 79
2019-06-25 03:00:00 13.6 2 Nordeste 7 Norte 0 -- -- 78
2019-06-25 02:00:00 14.1 4 Oeste 7 Noroeste 0 -- -- 76
2019-06-25 01:00:00 14.3 5 Oeste 8 Oeste 0 -- -- 74
2019-06-25 00:00:00 15.6 3 Sudeste 12 Este 0 -- -- 70
2019-06-24 23:00:00 16.4 5 Este 8 Este 0 -- -- 70
2019-06-24 22:00:00 16.8 3 Oeste 19 Oeste 0 -- -- 68
2019-06-24 21:00:00 18.1 13 Oeste 32 Noroeste 0 -- -- 64
2019-06-24 20:00:00 19 17 Noroeste 40 Noroeste 0 -- -- 62
2019-06-24 19:00:00 20.9 18 Noroeste 45 Noroeste 0 -- -- 57
2019-06-24 18:00:00 23.8 21 Noroeste 38 Noroeste 0 -- -- 50
2019-06-24 17:00:00 25 21 Noroeste 43 Noroeste 0 -- -- 48
2019-06-24 16:00:00 29.5 20 Oeste 31 Sudoeste 0 -- -- 37
2019-06-24 15:00:00 29.1 13 Sudoeste 23 Sudoeste 0 -- -- 30
2019-06-24 14:00:00 27.2 10 Sudoeste 22 Sudoeste 0 -- -- 36
2019-06-24 13:00:00 25.1 12 Sudoeste 19 Sudoeste 0 -- -- 41
2019-06-24 12:00:00 23.7 3 Sudeste 8 Sudoeste 0 -- -- 47
2019-06-24 11:00:00 21.5 5 Oeste 10 Oeste 0 -- -- 55
2019-06-24 10:00:00 19.4 7 Sudoeste 15 Sudoeste 0 -- -- 67
2019-06-24 09:00:00 17.8 11 Sudoeste 17 Sur 0 -- -- 70
2019-06-24 08:00:00 16.6 9 Sur 13 Sur 0 -- -- 69
2019-06-24 07:00:00 16.6 7 Sudoeste 8 Sudoeste 0 -- -- 69
2019-06-24 06:00:00 17.5 3 Noroeste 11 Noroeste 0 -- -- 63
2019-06-24 05:00:00 17.9 5 Noroeste 11 Noroeste 0 -- -- 50
2019-06-24 04:00:00 18.6 5 Oeste 12 Sudoeste 0 -- -- 44
2019-06-24 03:00:00 19.2 2 Oeste 6 Oeste 0 -- -- 44
2019-06-24 02:00:00 19.6 4 Sudoeste 7 Sudoeste 0 -- -- 43
2019-06-24 01:00:00 21.2 3 Nordeste 15 Nordeste 0 -- -- 36
2019-06-24 00:00:00 21.4 10 Norte 14 Norte 0 -- -- 34
2019-06-23 23:00:00 22 10 Norte 17 Norte 0 -- -- 34
2019-06-23 22:00:00 23.5 8 Noroeste 18 Noroeste 0 -- -- 30
2019-06-23 21:00:00 25.7 8 Noroeste 20 Noroeste 0 -- -- 27
2019-06-23 20:00:00 27.2 11 Noroeste 21 Noroeste 0 -- -- 26
2019-06-23 19:00:00 28.1 10 Oeste 26 Sudoeste 0 -- -- 27
2019-06-23 18:00:00 28.9 15 Sudoeste 26 Noroeste 0 -- -- 26
2019-06-23 17:00:00 28.9 11 Oeste 27 Sudoeste 0 -- -- 27
2019-06-23 16:00:00 29.4 15 Oeste 37 Sudoeste 0 -- -- 22
2019-06-23 15:00:00 29.6 15 Oeste 36 Sudoeste 0 -- -- 27
2019-06-23 14:00:00 29.2 23 Sudoeste 38 Sudoeste 0 -- -- 28
2019-06-23 13:00:00 27.8 12 Sur 23 Sudoeste 0 -- -- 28
2019-06-23 12:00:00 24.8 8 Sur 17 Sudeste 0 -- -- 32
2019-06-23 11:00:00 22 11 Sudeste 17 Sudeste 0 -- -- 39
2019-06-23 10:00:00 19.7 5 Este 10 Este 0 -- -- 44
2019-06-23 09:00:00 16.6 6 Sur 8 Sur 0 -- -- 50
2019-06-23 08:00:00 14.6 6 Sur 16 Sudoeste 0 -- -- 55
2019-06-23 07:00:00 13 13 Sudoeste 16 Sudoeste 0 -- -- 56
2019-06-23 06:00:00 14 12 Sudoeste 15 Sudoeste 0 -- -- 55
2019-06-23 05:00:00 14.4 12 Sudoeste 15 Sudoeste 0 -- -- 53
2019-06-23 04:00:00 15.1 12 Sudoeste 17 Sudoeste 0 -- -- 53
2019-06-23 03:00:00 16.1 11 Sur 17 Sur 0 -- -- 48
2019-06-23 02:00:00 18 14 Sur 17 Sur 0 -- -- 44
2019-06-23 01:00:00 18.8 14 Sur 18 Sur 0 -- -- 42
2019-06-23 00:00:00 19.6 13 Sudoeste 17 Sudoeste 0 -- -- 44
2019-06-22 23:00:00 21.4 10 Sudoeste 14 Oeste 0 -- -- 41
2019-06-22 22:00:00 25.1 11 Oeste 24 Oeste 0 -- -- 32
2019-06-22 21:00:00 27.6 13 Oeste 29 Sudoeste 0 -- -- 27
2019-06-22 20:00:00 29.1 19 Oeste 39 Sudoeste 0 -- -- 25
2019-06-22 19:00:00 30.7 20 Sudoeste 35 Oeste 0 -- -- 26
2019-06-22 18:00:00 30.4 14 Sur 32 Sudoeste 0 -- -- 26
2019-06-22 17:00:00 30.8 10 Sur 24 Sudoeste 0 -- -- 24
2019-06-22 16:00:00 30 14 Oeste 29 Sudoeste 0 -- -- 26
2019-06-22 15:00:00 29 10 Noroeste 28 Oeste 0 -- -- 27
2019-06-22 14:00:00 28.1 10 Sudoeste 24 Sudoeste 0 -- -- 29
2019-06-22 13:00:00 27 7 Noroeste 27 Oeste 0 -- -- 32
2019-06-22 12:00:00 25.4 16 Sudoeste 27 Sudoeste 0 -- -- 35
2019-06-22 11:00:00 22 6 Este 14 Este 0 -- -- 49
2019-06-22 10:00:00 17.1 5 Este 15 Este 0 -- -- 59
2019-06-22 09:00:00 12.6 9 Este 19 Este 0 -- -- 73
2019-06-22 08:00:00 10.6 9 Este 15 Este 0 -- -- 80
2019-06-22 07:00:00 9.6 5 Este 10 Este 0 -- -- 85
2019-06-22 06:00:00 10.5 6 Este 13 Este 0 -- -- 83
2019-06-22 05:00:00 10.4 9 Este 15 Este 0 -- -- 82
2019-06-22 04:00:00 11 12 Este 22 Este 0 -- -- 80
2019-06-22 03:00:00 12.2 15 Este 20 Este 0 -- -- 76
2019-06-22 02:00:00 13.4 16 Este 23 Este 0 -- -- 71
2019-06-22 01:00:00 15 14 Este 23 Este 0 -- -- 66
2019-06-22 00:00:00 16.6 16 Este 27 Este 0 -- -- 60
2019-06-21 23:00:00 18.5 10 Nordeste 18 Nordeste 0 -- -- 51
2019-06-21 22:00:00 20.2 11 Nordeste 23 Norte 0 -- -- 45
2019-06-21 21:00:00 22.3 15 Nordeste 25 Norte 0 -- -- 41
2019-06-21 20:00:00 23.3 13 Norte 24 Norte 0 -- -- 39
2019-06-21 19:00:00 24.2 7 Noroeste 24 Nordeste 0 -- -- 37
2019-06-21 18:00:00 24.3 12 Norte 24 Norte 0 -- -- 38
2019-06-21 17:00:00 23.8 6 Sudeste 21 Norte 0 -- -- 37
2019-06-21 16:00:00 22.6 7 Nordeste 27 Norte 0 -- -- 44
2019-06-21 15:00:00 22.6 9 Nordeste 22 Nordeste 0 -- -- 48
2019-06-21 14:00:00 20.7 11 Nordeste 23 Nordeste 0 -- -- 53
2019-06-21 13:00:00 18.2 9 Nordeste 23 Norte 0 -- -- 63
2019-06-21 12:00:00 16 11 Norte 26 Norte 0 -- -- 72
2019-06-21 11:00:00 14.6 15 Nordeste 24 Nordeste 0 -- -- 78
2019-06-21 10:00:00 13.1 14 Norte 22 Norte 0 -- -- 86
2019-06-21 09:00:00 11.9 6 Norte 10 Norte 0 -- -- 94
2019-06-21 08:00:00 10.4 6 Norte 10 Norte 0 -- -- 94
2019-06-21 07:00:00 10.7 6 Norte 10 Norte 0 -- -- 93
2019-06-21 06:00:00 10.7 4 Oeste 6 Noroeste 0 -- -- 90
2019-06-21 05:00:00 12 3 Norte 8 Norte 0 -- -- 86
2019-06-21 04:00:00 12.6 5 Nordeste 10 Nordeste 0 -- -- 84
2019-06-21 03:00:00 13 7 Nordeste 23 Este 0 -- -- 84
2019-06-21 02:00:00 13.4 18 Este 37 Nordeste 0 -- -- 84
2019-06-21 01:00:00 14 24 Nordeste 41 Nordeste 0 -- -- 84
2019-06-21 00:00:00 14.7 17 Nordeste 31 Nordeste 0 -- -- 84
2019-06-20 23:00:00 15.9 12 Norte 19 Norte 0 -- -- 87
2019-06-20 22:00:00 16.7 5 Este 18 Este 0 -- -- 78
2019-06-20 21:00:00 18 7 Nordeste 14 Norte 0 -- -- 77
2019-06-20 20:00:00 17.6 10 Norte 18 Norte 5.6 -- -- 77
2019-06-20 19:00:00 19.5 12 Sudoeste 31 Sur 3.6 -- -- 69
2019-06-20 18:00:00 24.9 19 Sudeste 27 Sur 0 -- -- 38
2019-06-20 17:00:00 25.7 8 Norte 18 Norte 0 -- -- 33
2019-06-20 16:00:00 26.1 10 Noroeste 23 Norte 0 -- -- 34
2019-06-20 15:00:00 25.5 4 Sudoeste 18 Norte 0 -- -- 36
2019-06-20 14:00:00 25 8 Este 19 Este 0 -- -- 39
2019-06-20 13:00:00 22.6 7 Nordeste 19 Norte 0 -- -- 44
2019-06-20 12:00:00 21.9 5 Norte 14 Nordeste 0 -- -- 45
2019-06-20 11:00:00 20.6 5 Norte 10 Este 0 -- -- 49
2019-06-20 10:00:00 18.7 4 Oeste 8 Sudoeste 0 -- -- 55
2019-06-20 09:00:00 16.4 2 Oeste 7 Sudoeste 0 -- -- 62
2019-06-20 08:00:00 15.2 3 Oeste 7 Oeste 0 -- -- 66
2019-06-20 07:00:00 14.7 5 Sudoeste 7 Sudoeste 0 -- -- 67
2019-06-20 06:00:00 14.4 5 Sudoeste 8 Sudoeste 0 -- -- 67
2019-06-20 05:00:00 14.3 5 Sudoeste 9 Oeste 0 -- -- 67
2019-06-20 04:00:00 14.2 5 Oeste 8 Oeste 0 -- -- 67
2019-06-20 03:00:00 15.1 4 Noroeste 8 Noroeste 0 -- -- 64
2019-06-20 02:00:00 16.4 4 Noroeste 13 Noroeste 0 -- -- 60
2019-06-20 01:00:00 17.8 7 Noroeste 14 Noroeste 0 -- -- 57
2019-06-20 00:00:00 18.7 6 Noroeste 11 Noroeste 0 -- -- 55
2019-06-19 23:00:00 19 4 Noroeste 8 Noroeste 0 -- -- 54
2019-06-19 22:00:00 20.5 4 Noroeste 22 Oeste 0 -- -- 51
2019-06-19 21:00:00 22.1 13 Noroeste 30 Noroeste 0 -- -- 47
2019-06-19 20:00:00 22.7 9 Noroeste 35 Oeste 0 -- -- 47
2019-06-19 19:00:00 23.4 15 Oeste 36 Oeste 0 -- -- 43
2019-06-19 18:00:00 24.4 13 Oeste 30 Sudoeste 0 -- -- 40
2019-06-19 17:00:00 25 14 Oeste 35 Oeste 0 -- -- 39
2019-06-19 16:00:00 24.4 14 Oeste 34 Sudoeste 0 -- -- 40
2019-06-19 15:00:00 23.4 13 Oeste 32 Oeste 0 -- -- 42
2019-06-19 14:00:00 -- -- -- -- -- -- -- -- --
2019-06-19 13:00:00 21.4 15 Oeste -- -- -- -- -- 49
2019-06-19 12:00:00 -- -- -- -- -- -- -- -- --
2019-06-19 11:00:00 -- -- -- -- -- -- -- -- --
2019-06-19 10:00:00 -- -- -- -- -- -- -- -- --
2019-06-19 09:00:00 -- -- -- -- -- -- -- -- --
2019-06-19 08:00:00 -- -- -- -- -- -- -- -- --
2019-06-19 07:00:00 -- -- -- -- -- -- -- -- --
2019-06-19 06:00:00 -- -- -- -- -- -- -- -- --
2019-06-19 05:00:00 -- -- -- -- -- -- -- -- --
2019-06-19 04:00:00 -- -- -- -- -- -- -- -- --
2019-06-19 03:00:00 -- -- -- -- -- -- -- -- --
2019-06-19 02:00:00 -- -- -- -- -- -- -- -- --
2019-06-19 01:00:00 -- -- -- -- -- -- -- -- --
2019-06-19 00:00:00 -- -- -- -- -- -- -- -- --
2019-06-18 23:00:00 -- -- -- -- -- -- -- -- --
2019-06-18 22:00:00 -- -- -- -- -- -- -- -- --
2019-06-18 21:00:00 -- -- -- -- -- -- -- -- --
2019-06-18 20:00:00 -- -- -- -- -- -- -- -- --
2019-06-18 19:00:00 24.8 31 Oeste 59 Oeste 0 -- -- 39
2019-06-18 18:00:00 26.5 30 Oeste 53 Sudoeste 0 -- -- 32
2019-06-18 17:00:00 27.1 27 Oeste 55 Sudoeste 0 -- -- 29
2019-06-18 16:00:00 27.5 29 Sudoeste 53 Sudoeste 0 -- -- 26
2019-06-18 15:00:00 27.4 23 Oeste 44 Sudoeste 0 -- -- 20
2019-06-18 14:00:00 27.7 19 Oeste 37 Sudoeste 0 -- -- 19
2019-06-18 13:00:00 27.4 8 Sur 17 Sudoeste 0 -- -- 19
2019-06-18 12:00:00 24.9 9 Sudoeste 25 Sudoeste 0 -- -- 28
2019-06-18 11:00:00 22.8 16 Sudoeste 23 Sudoeste 0 -- -- 31
2019-06-18 10:00:00 19.3 19 Sudoeste 27 Sudoeste 0 -- -- 42
2019-06-18 09:00:00 17.5 19 Sudoeste 30 Sudoeste 0 -- -- 46
2019-06-18 08:00:00 17.2 17 Sudoeste 30 Sudoeste 0 -- -- 37
2019-06-18 07:00:00 14.6 18 Sur 23 Sur 0 -- -- 38
2019-06-18 06:00:00 14.6 18 Sur 26 Sur 0 -- -- 39
2019-06-18 05:00:00 16.1 14 Sur 17 Sur 0 -- -- 39
2019-06-18 04:00:00 17.2 10 Sudeste 15 Sudeste 0 -- -- 37
2019-06-18 03:00:00 19.5 15 Sudeste 22 Sudeste 0 -- -- 33
2019-06-18 02:00:00 19.2 16 Sudeste 24 Este 0 -- -- 36
2019-06-18 01:00:00 20.9 13 Nordeste 18 Nordeste 0 -- -- 34
2019-06-18 00:00:00 21.5 7 Norte 15 Noroeste 0 -- -- 33
2019-06-17 23:00:00 22.5 9 Noroeste 14 Noroeste 0 -- -- 29
2019-06-17 22:00:00 23.9 4 Oeste 19 Oeste 0 -- -- 25
2019-06-17 21:00:00 25.3 13 Oeste 34 Oeste 0 -- -- 24
2019-06-17 20:00:00 26.7 20 Oeste 39 Oeste 0 -- -- 23
2019-06-17 19:00:00 28.4 25 Oeste 41 Oeste 0 -- -- 20
2019-06-17 18:00:00 29.6 14 Oeste 29 Oeste 0 -- -- 22
2019-06-17 17:00:00 30.8 21 Sudoeste 38 Sur 0 -- -- 18
2019-06-17 16:00:00 30.5 18 Sur 39 Sur 0 -- -- 19
2019-06-17 15:00:00 29.4 11 Sudoeste 29 Sudeste 0 -- -- 18
2019-06-17 14:00:00 28.1 18 Sudeste 38 Sur 0 -- -- 23
2019-06-17 13:00:00 26.4 7 Oeste 20 Este 0 -- -- 28
2019-06-17 12:00:00 24.6 6 Oeste 17 Oeste 0 -- -- 34
2019-06-17 11:00:00 22.6 7 Sudoeste 19 Sudoeste 0 -- -- 41
2019-06-17 10:00:00 19.1 3 Oeste 15 Sudoeste 0 -- -- 54
2019-06-17 09:00:00 15.7 10 Sudoeste 15 Sudoeste 0 -- -- 55
2019-06-17 08:00:00 12.6 10 Sudoeste 18 Sur 0 -- -- 62
2019-06-17 07:00:00 10.3 12 Sudoeste 17 Sudoeste 0 -- -- 59
2019-06-17 06:00:00 11.7 15 Sudoeste 19 Sudoeste 0 -- -- 57
2019-06-17 05:00:00 12.9 15 Sudoeste 19 Sudoeste 0 -- -- 46
2019-06-17 04:00:00 13.8 17 Sur 23 Sur 0 -- -- 43
2019-06-17 03:00:00 15 16 Sur 19 Sur 0 -- -- 40
2019-06-17 02:00:00 15 12 Sur 15 Sur 0 -- -- 37
2019-06-17 01:00:00 15.8 11 Sudoeste 14 Sudoeste 0 -- -- 38
2019-06-17 00:00:00 17.1 13 Sudoeste 18 Sudoeste 0 -- -- 32
2019-06-16 23:00:00 19.4 12 Sudoeste 15 Sudoeste 0 -- -- 26
2019-06-16 22:00:00 23.2 10 Oeste 19 Oeste 0 -- -- 21
2019-06-16 21:00:00 26.2 9 Oeste 23 Oeste 0 -- -- 22
2019-06-16 20:00:00 27.9 10 Oeste 20 Oeste 0 -- -- 21
2019-06-16 19:00:00 28.1 11 Oeste 24 Sudoeste 0 -- -- 20
2019-06-16 18:00:00 28.2 6 Oeste 18 Oeste 0 -- -- 20
2019-06-16 17:00:00 28.9 4 Noroeste 23 Sudoeste 0 -- -- 20
2019-06-16 16:00:00 28 6 Noroeste 23 Oeste 0 -- -- 21
2019-06-16 15:00:00 27 11 Sudoeste 24 Oeste 0 -- -- 21
2019-06-16 14:00:00 26.2 9 Noroeste 24 Sudoeste 0 -- -- 22
2019-06-16 13:00:00 25.2 10 Noroeste 26 Sudoeste 0 -- -- 24
2019-06-16 12:00:00 23.7 5 Noroeste 14 Sur 0 -- -- 27
2019-06-16 11:00:00 20.3 5 Nordeste 10 Norte 0 -- -- 32
2019-06-16 10:00:00 15.9 4 Este 9 Este 0 -- -- 40
2019-06-16 09:00:00 12.1 8 Este 13 Este 0 -- -- 50
2019-06-16 08:00:00 8.5 7 Este 10 Sudeste 0 -- -- 54
2019-06-16 07:00:00 6.3 3 Este 17 Este 0 -- -- 59
2019-06-16 06:00:00 8.2 13 Este 17 Este 0 -- -- 57
2019-06-16 05:00:00 9.6 6 Nordeste 10 Nordeste 0 -- -- 54
2019-06-16 04:00:00 10.2 4 Este 11 Este 0 -- -- 50
2019-06-16 03:00:00 12.5 6 Este 15 Oeste 0 -- -- 44
2019-06-16 02:00:00 13.8 9 Sudeste 15 Oeste 0 -- -- 40
2019-06-16 01:00:00 15.1 9 Sudeste 10 Sudeste 0 -- -- 39
2019-06-16 00:00:00 17 4 Norte 8 Norte 0 -- -- 35
2019-06-15 23:00:00 17.9 5 Norte 10 Norte 0 -- -- 34
2019-06-15 22:00:00 19.7 6 Norte 10 Noroeste 0 -- -- 32
2019-06-15 21:00:00 23.1 3 Oeste 13 Sudoeste 0 -- -- 26
2019-06-15 20:00:00 23.3 7 Noroeste 18 Noroeste 0 -- -- 26
2019-06-15 19:00:00 23.5 7 Noroeste 22 Noroeste 0 -- -- 27
2019-06-15 18:00:00 23.1 5 Oeste 22 Oeste 0 -- -- 27
2019-06-15 17:00:00 22.2 6 Sudoeste 21 Sudoeste 0 -- -- 29
2019-06-15 16:00:00 21.7 9 Sudoeste 24 Sudoeste 0 -- -- 30
2019-06-15 15:00:00 20.7 6 Norte 18 Noroeste 0 -- -- 34
2019-06-15 14:00:00 19 5 Noroeste 17 Oeste 0 -- -- 37
2019-06-15 13:00:00 17.7 4 Sudoeste 27 Norte 0 -- -- 41
2019-06-15 12:00:00 15.9 7 Noroeste 15 Sudoeste 0 -- -- 46
2019-06-15 11:00:00 14.4 10 Sudoeste 18 Sudoeste 0 -- -- 55
2019-06-15 10:00:00 12.2 7 Oeste 17 Sudoeste 0 -- -- 64
2019-06-15 09:00:00 10.3 13 Oeste 20 Oeste 0 -- -- 72
2019-06-15 08:00:00 7.9 8 Sudoeste 13 Sudoeste 0 -- -- 78
2019-06-15 07:00:00 6.5 12 Sudoeste 17 Sudoeste 0 -- -- 82
2019-06-15 06:00:00 6.3 12 Sudoeste 15 Sudoeste 0 -- -- 80
2019-06-15 05:00:00 7.2 14 Sudoeste 17 Sudoeste 0 -- -- 76
2019-06-15 04:00:00 7.6 13 Sudoeste 21 Sudoeste 0 -- -- 72
2019-06-15 03:00:00 9.6 12 Sudoeste 15 Oeste 0 -- -- 63
2019-06-15 02:00:00 11.2 8 Oeste 15 Oeste 0 -- -- 60
2019-06-15 01:00:00 12.3 8 Oeste 28 Oeste 0 -- -- 56
2019-06-15 00:00:00 13.7 15 Oeste 31 Noroeste 0 -- -- 48
2019-06-14 23:00:00 15.3 14 Oeste 33 Oeste 0 -- -- 41
2019-06-14 22:00:00 16.9 17 Oeste 29 Oeste 0 -- -- 37
2019-06-14 21:00:00 18.2 14 Oeste 30 Oeste 0 -- -- 34
2019-06-14 20:00:00 19.7 16 Oeste 36 Oeste 0 -- -- 32
2019-06-14 19:00:00 21.2 21 Oeste 41 Oeste 0 -- -- 29
2019-06-14 18:00:00 22 22 Oeste 41 Oeste 0 -- -- 28
2019-06-14 17:00:00 22.3 23 Oeste 47 Oeste 0 -- -- 26
2019-06-14 16:00:00 22.6 21 Oeste 45 Sudoeste 0 -- -- 24
2019-06-14 15:00:00 22.5 19 Oeste 39 Oeste 0 -- -- 27
2019-06-14 14:00:00 22.1 15 Oeste 38 Sudoeste 0 -- -- 30
2019-06-14 13:00:00 21.5 14 Sudoeste 33 Oeste 0 -- -- 29
2019-06-14 12:00:00 19.5 13 Oeste 33 Oeste 0 -- -- 34
2019-06-14 11:00:00 17.2 12 Oeste 23 Oeste 0 -- -- 40
2019-06-14 10:00:00 13.6 7 Oeste 21 Oeste 0 -- -- 53
2019-06-14 09:00:00 10.6 14 Sudoeste 20 Sudoeste 0 -- -- 60
2019-06-14 08:00:00 7.8 13 Sudoeste 18 Sudoeste 0 -- -- 61
2019-06-14 07:00:00 5.5 10 Sur 12 Sur 0 -- -- 65
2019-06-14 06:00:00 6.7 5 Sudoeste 9 Oeste 0 -- -- 60
2019-06-14 05:00:00 8.1 8 Oeste 13 Sudoeste 0 -- -- 56
2019-06-14 04:00:00 10.4 2 Oeste 4 Sudoeste 0 -- -- 50
2019-06-14 03:00:00 11.3 3 Oeste 10 Oeste 0 -- -- 46
2019-06-14 02:00:00 13 4 Oeste 7 Norte 0 -- -- 43
2019-06-14 01:00:00 15.2 6 Norte 10 Norte 0 -- -- 39
2019-06-14 00:00:00 16.4 4 Noroeste 17 Norte 0 -- -- 37
2019-06-13 23:00:00 17.8 6 Noroeste 14 Noroeste 0 -- -- 35
2019-06-13 22:00:00 19.9 7 Noroeste 26 Noroeste 0 -- -- 31
2019-06-13 21:00:00 23.4 8 Oeste 33 Oeste 0 -- -- 23
2019-06-13 20:00:00 24.1 21 Oeste 42 Sudoeste 0 -- -- 14
2019-06-13 19:00:00 24.8 24 Oeste 39 Sudoeste 0 -- -- 15
2019-06-13 18:00:00 25.6 21 Oeste 39 Oeste 0 -- -- 17
2019-06-13 17:00:00 24.7 12 Oeste 36 Oeste 0 -- -- 21
2019-06-13 16:00:00 24.2 17 Oeste 34 Oeste 0 -- -- 23
2019-06-13 15:00:00 23.4 17 Sudoeste 32 Sudoeste 0 -- -- 25
2019-06-13 14:00:00 22 14 Oeste 30 Sudoeste 0 -- -- 26
2019-06-13 13:00:00 21.2 17 Sudoeste 28 Sudoeste 0 -- -- 32
2019-06-13 12:00:00 18.6 9 Sudoeste 19 Oeste 0 -- -- 37
2019-06-13 11:00:00 15.8 9 Oeste 16 Oeste 0 -- -- 45
2019-06-13 10:00:00 12.6 8 Sudoeste 14 Oeste 0 -- -- 49
2019-06-13 09:00:00 9.4 6 Oeste 13 Oeste 0 -- -- 56
2019-06-13 08:00:00 6.2 9 Sudoeste 19 Sudoeste 0 -- -- 59
2019-06-13 07:00:00 4 13 Sudoeste 17 Sudoeste 0 -- -- 64
2019-06-13 06:00:00 4.8 8 Sudoeste 10 Sudoeste 0 -- -- 60
2019-06-13 05:00:00 7.3 5 Oeste 9 Noroeste 0 -- -- 54
2019-06-13 04:00:00 9 5 Oeste 7 Noroeste 0 -- -- 44
2019-06-13 03:00:00 9.3 3 Noroeste 12 Noroeste 0 -- -- 42
2019-06-13 02:00:00 9.7 6 Sudoeste 11 Sudoeste 0 -- -- 41
2019-06-13 01:00:00 12.9 7 Este 10 Sudeste 0 -- -- 35
2019-06-13 00:00:00 14.8 5 Nordeste 11 Norte 0 -- -- 31
2019-06-12 23:00:00 16.2 8 Nordeste 10 Norte 0 -- -- 30
2019-06-12 22:00:00 17.8 6 Norte 16 Norte 0 -- -- 27
2019-06-12 21:00:00 21 8 Nordeste 16 Norte 0 -- -- 23
2019-06-12 20:00:00 22 5 Norte 24 Oeste 0 -- -- 21
2019-06-12 19:00:00 22.1 13 Oeste 24 Oeste 0 -- -- 21
2019-06-12 18:00:00 21.7 12 Oeste 30 Oeste 0 -- -- 21
2019-06-12 17:00:00 21.5 13 Sudoeste 28 Sudoeste 0 -- -- 22
2019-06-12 16:00:00 20.5 11 Oeste 31 Este 0 -- -- 24
2019-06-12 15:00:00 19.7 7 Oeste 30 Oeste 0 -- -- 27
2019-06-12 14:00:00 17.9 5 Norte 18 Nordeste 0 -- -- 33
2019-06-12 13:00:00 16.9 5 Norte 14 Oeste 0 -- -- 35
2019-06-12 12:00:00 15 6 Oeste 15 Oeste 0 -- -- 38
2019-06-12 11:00:00 13.8 4 Nordeste 10 Nordeste 0 -- -- 43
2019-06-12 10:00:00 11.8 5 Nordeste 12 Nordeste 0 -- -- 48
2019-06-12 09:00:00 9.3 4 Sur 7 Sudeste 0 -- -- 59
2019-06-12 08:00:00 6.3 0 Calma 5 Norte 0 -- -- 68
2019-06-12 07:00:00 4.8 4 Norte 7 Norte 0 -- -- 74
2019-06-12 06:00:00 4.9 3 Noroeste 5 Norte 0 -- -- 71
2019-06-12 05:00:00 6.9 4 Norte 8 Norte 0 -- -- 67
2019-06-12 04:00:00 6.9 5 Norte 11 Norte 0 -- -- 65
2019-06-12 03:00:00 7.5 4 Norte 10 Norte 0 -- -- 62
2019-06-12 02:00:00 8.4 6 Norte 15 Norte 0 -- -- 59
2019-06-12 01:00:00 10.2 10 Norte 17 Norte 0 -- -- 52
2019-06-12 00:00:00 11.4 10 Norte 24 Norte 0 -- -- 48
2019-06-11 23:00:00 12.8 9 Norte 24 Norte 0 -- -- 44
2019-06-11 22:00:00 14.5 12 Norte 27 Norte 0 -- -- 36
2019-06-11 21:00:00 17.2 19 Norte 29 Noroeste 0 -- -- 30
2019-06-11 20:00:00 18.4 19 Norte 39 Nordeste 0 -- -- 27
2019-06-11 19:00:00 19.1 12 Norte 32 Norte 0 -- -- 27
2019-06-11 18:00:00 18.3 17 Nordeste 35 Norte 0 -- -- 27
2019-06-11 17:00:00 19.3 10 Norte 36 Nordeste 0 -- -- 25
2019-06-11 16:00:00 18.3 16 Norte 37 Norte 0 -- -- 27
2019-06-11 15:00:00 17 18 Norte 36 Norte 0 -- -- 29
2019-06-11 14:00:00 16.6 17 Nordeste 29 Nordeste 0 -- -- 33
2019-06-11 13:00:00 15.3 17 Norte 29 Norte 0 -- -- 43
2019-06-11 12:00:00 14.1 9 Noroeste 26 Norte 0 -- -- 50
2019-06-11 11:00:00 12.6 11 Nordeste 25 Nordeste 0 -- -- 55
2019-06-11 10:00:00 11.3 14 Norte 23 Nordeste 0 -- -- 64
2019-06-11 09:00:00 10.3 9 Norte 16 Norte 0 -- -- 71
2019-06-11 08:00:00 9.7 11 Nordeste 17 Nordeste 0 -- -- 73
2019-06-11 07:00:00 9.7 9 Norte 17 Norte 0 -- -- 71
2019-06-11 06:00:00 9.8 8 Nordeste 14 Nordeste 0 -- -- 70
2019-06-11 05:00:00 9.5 10 Norte 15 Norte 0 -- -- 73
2019-06-11 04:00:00 10.2 7 Norte 17 Norte 0 -- -- 71
2019-06-11 03:00:00 10.9 13 Norte 29 Norte 0 -- -- 68
2019-06-11 02:00:00 12.1 17 Norte 27 Norte 0 -- -- 65
2019-06-11 01:00:00 14.9 12 Norte 24 Noroeste 0 -- -- 51
2019-06-11 00:00:00 16.6 14 Noroeste 33 Noroeste 0 -- -- 39
2019-06-10 23:00:00 18.5 19 Oeste 40 Oeste 0 -- -- 32
2019-06-10 22:00:00 19.2 13 Noroeste 23 Noroeste 0 -- -- 30
2019-06-10 21:00:00 21.7 9 Noroeste 20 Noroeste 0 -- -- 28
2019-06-10 20:00:00 21.8 14 Noroeste 27 Noroeste 0 -- -- 27
2019-06-10 19:00:00 22.2 12 Noroeste 24 Noroeste 0 -- -- 28
2019-06-10 18:00:00 22.1 5 Noroeste 26 Oeste 0 -- -- 26
2019-06-10 17:00:00 21.7 12 Norte 29 Noroeste 0 -- -- 29
2019-06-10 16:00:00 20.9 12 Norte 28 Noroeste 0 -- -- 32
2019-06-10 15:00:00 19.8 10 Norte 24 Nordeste 0 -- -- 35
2019-06-10 14:00:00 19 9 Noroeste 21 Noroeste 0 -- -- 40
2019-06-10 13:00:00 17.5 8 Norte 23 Oeste 0 -- -- 44
2019-06-10 12:00:00 16.5 5 Norte 15 Noroeste 0 -- -- 50
2019-06-10 11:00:00 13.8 3 Nordeste 11 Este 0 -- -- 63
2019-06-10 10:00:00 11 5 Este 10 Este 0 -- -- 77
2019-06-10 09:00:00 8.5 5 Este 10 Nordeste 0 -- -- 87
2019-06-10 08:00:00 7.9 3 Norte 6 Norte 0 -- -- 86
2019-06-10 07:00:00 6.9 4 Norte 7 Noroeste 0 -- -- 89
2019-06-10 06:00:00 7.3 3 Norte 12 Norte 0 -- -- 88
2019-06-10 05:00:00 8.4 4 Norte 6 Norte 0 -- -- 86
2019-06-10 04:00:00 8.6 4 Norte 8 Norte 0 -- -- 84
2019-06-10 03:00:00 10.3 5 Norte 15 Nordeste 0 -- -- 78
2019-06-10 02:00:00 11.3 12 Nordeste 19 Nordeste 0 -- -- 76
2019-06-10 01:00:00 12.1 14 Nordeste 22 Nordeste 0 -- -- 73
2019-06-10 00:00:00 13.1 11 Norte 28 Norte 0 -- -- 68
2019-06-09 23:00:00 16.5 14 Noroeste 28 Noroeste 0 -- -- 43
2019-06-09 22:00:00 17.7 18 Noroeste 33 Noroeste 0 -- -- 40
2019-06-09 21:00:00 19.2 21 Noroeste 45 Noroeste 0 -- -- 34
2019-06-09 20:00:00 22.1 18 Noroeste 40 Noroeste 0 -- -- 30
2019-06-09 19:00:00 23.4 17 Oeste 33 Oeste 0 -- -- 26
2019-06-09 18:00:00 22.9 14 Oeste 28 Oeste 0 -- -- 26
2019-06-09 17:00:00 23.4 15 Oeste 31 Oeste 0 -- -- 27
2019-06-09 16:00:00 23.5 12 Oeste 31 Oeste 0 -- -- 31
2019-06-09 15:00:00 22.5 6 Oeste 26 Oeste 0 -- -- 34
2019-06-09 14:00:00 21.3 9 Oeste 22 Oeste 0 -- -- 37
2019-06-09 13:00:00 20.1 10 Noroeste 23 Oeste 0 -- -- 42
2019-06-09 12:00:00 18.6 10 Oeste 22 Oeste 0 -- -- 47
2019-06-09 11:00:00 16.3 11 Oeste 23 Oeste 0 -- -- 60
2019-06-09 10:00:00 14.2 10 Oeste 21 Oeste 0 -- -- 67
2019-06-09 09:00:00 11.7 9 Oeste 18 Sudoeste 0 -- -- 71
2019-06-09 08:00:00 9.6 8 Oeste 16 Sudoeste 0 -- -- 77
2019-06-09 07:00:00 8.1 12 Sudoeste 19 Sudoeste 0 -- -- 78
2019-06-09 06:00:00 8.9 13 Sudoeste 18 Oeste 0 -- -- 71
2019-06-09 05:00:00 8.7 10 Sudoeste 13 Sudoeste 0 -- -- 68
2019-06-09 04:00:00 10.6 9 Sudoeste 10 Oeste 0 -- -- 64
2019-06-09 03:00:00 12.8 5 Oeste 14 Noroeste 0 -- -- 60
2019-06-09 02:00:00 14.3 10 Oeste 19 Noroeste 0 -- -- 45
2019-06-09 01:00:00 16.5 5 Oeste 14 Oeste 0 -- -- 42
2019-06-09 00:00:00 18 7 Sur 10 Sur 0 -- -- 38
2019-06-08 23:00:00 19.4 0 Calma 8 Noroeste 0 -- -- 35
2019-06-08 22:00:00 20.4 5 Noroeste 18 Noroeste 0 -- -- 30
2019-06-08 21:00:00 21.6 8 Noroeste 26 Noroeste 0 -- -- 29
2019-06-08 20:00:00 22.7 14 Noroeste 40 Noroeste 0 -- -- 27
2019-06-08 19:00:00 25.7 20 Sudoeste 43 Sur 0 -- -- 24
2019-06-08 18:00:00 26.2 19 Sur 41 Sur 0 -- -- 22
2019-06-08 17:00:00 26.3 20 Sur 33 Sudeste 0 -- -- 23
2019-06-08 16:00:00 25.1 12 Sudeste 29 Este 0 -- -- 26
2019-06-08 15:00:00 24 9 Sur 23 Este 0 -- -- 28
2019-06-08 14:00:00 22.1 3 Oeste 18 Este 0 -- -- 30
2019-06-08 13:00:00 20.7 6 Sudoeste 16 Sudeste 0 -- -- 32
2019-06-08 12:00:00 19 10 Nordeste 18 Nordeste 0 -- -- 37
2019-06-08 11:00:00 16.2 8 Nordeste 15 Norte 0 -- -- 42
2019-06-08 10:00:00 12.5 4 Nordeste 13 Nordeste 0 -- -- 55
2019-06-08 09:00:00 9.3 5 Norte 9 Nordeste 0 -- -- 63
2019-06-08 08:00:00 7.8 4 Este 7 Este 0 -- -- 68
2019-06-08 07:00:00 5 4 Este 6 Nordeste 0 -- -- 77
2019-06-08 06:00:00 5.9 3 Nordeste 4 Nordeste 0 -- -- 76
2019-06-08 05:00:00 5.8 3 Sudeste 4 Sudeste 0 -- -- 75
2019-06-08 04:00:00 7.9 4 Norte 8 Nordeste 0 -- -- 66
2019-06-08 03:00:00 8.1 6 Norte 9 Nordeste 0 -- -- 65
2019-06-08 02:00:00 8.6 7 Norte 18 Noroeste 0 -- -- 62
2019-06-08 01:00:00 10.9 10 Noroeste 20 Noroeste 0 -- -- 53
2019-06-08 00:00:00 12.1 0 Calma 4 Norte 0 -- -- 46
2019-06-07 23:00:00 13.1 3 Norte 8 Noroeste 0 -- -- 43
2019-06-07 22:00:00 14.5 5 Noroeste 17 Noroeste 0 -- -- 41
2019-06-07 21:00:00 16.8 11 Noroeste 20 Noroeste 0 -- -- 34
2019-06-07 20:00:00 17.8 10 Oeste 34 Noroeste 0 -- -- 34
2019-06-07 19:00:00 17.8 7 Noroeste 29 Oeste 0 -- -- 34
2019-06-07 18:00:00 17.6 12 Noroeste 31 Noroeste 0 -- -- 34
2019-06-07 17:00:00 17.7 12 Oeste 31 Oeste 0 -- -- 34
2019-06-07 16:00:00 16.6 14 Oeste 31 Oeste 0 -- -- 37
2019-06-07 15:00:00 15.8 13 Oeste 32 Oeste 0 -- -- 39
2019-06-07 14:00:00 14.8 15 Noroeste 34 Sudoeste 0 -- -- 47
2019-06-07 13:00:00 13.5 17 Oeste 31 Noroeste 0 -- -- 51
2019-06-07 12:00:00 12.1 17 Oeste 35 Oeste 0 -- -- 58
2019-06-07 11:00:00 11.3 19 Oeste 33 Oeste 0 -- -- 63
2019-06-07 10:00:00 9.8 17 Oeste 37 Oeste 0 -- -- 74
2019-06-07 09:00:00 9 20 Oeste 38 Sudoeste 0 -- -- 77
2019-06-07 08:00:00 7.7 20 Sudoeste 28 Sudoeste 0 -- -- 87
2019-06-07 07:00:00 7 18 Sudoeste 27 Sudoeste 0 -- -- 89
2019-06-07 06:00:00 6.6 16 Sudoeste 36 Oeste 0 -- -- 90
2019-06-07 05:00:00 7.1 21 Sudoeste 33 Sudoeste 0 -- -- 89
2019-06-07 04:00:00 7.4 23 Sudoeste 33 Oeste 0 -- -- 87
2019-06-07 03:00:00 8.6 23 Sudoeste 35 Sudoeste 0 -- -- 86
2019-06-07 02:00:00 8.5 18 Sudoeste 35 Sudoeste 0.4 -- -- 90
2019-06-07 01:00:00 8.9 18 Oeste 37 Oeste 0.4 -- -- 86
2019-06-07 00:00:00 9.7 15 Oeste 68 Sudoeste 2.8 -- -- 90
2019-06-06 23:00:00 16.3 39 Sudoeste 54 Sudoeste 0 -- -- 52
2019-06-06 22:00:00 16.6 29 Sudoeste 62 Sudoeste 0 -- -- 52
2019-06-06 21:00:00 18 39 Sudoeste 67 Sudoeste 0 -- -- 41
2019-06-06 20:00:00 20 39 Sudoeste 61 Sudoeste 0 -- -- 36
2019-06-06 19:00:00 22.1 41 Sudoeste 61 Sudoeste 0 -- -- 31
2019-06-06 18:00:00 23.5 35 Sudoeste 56 Sudoeste 0 -- -- 29
2019-06-06 17:00:00 23.1 36 Sudoeste 54 Sudoeste 0 -- -- 27
2019-06-06 16:00:00 22.1 29 Sudoeste 45 Sudoeste 0 -- -- 27
2019-06-06 15:00:00 21.1 21 Sudoeste 39 Sudoeste 0 -- -- 27
2019-06-06 14:00:00 20 18 Sudoeste 32 Sudoeste 0 -- -- 29
2019-06-06 13:00:00 18.2 22 Sudoeste 36 Sudoeste 0 -- -- 32
2019-06-06 12:00:00 15.5 9 Sur 22 Sur 0 -- -- 43
2019-06-06 11:00:00 13.7 7 Sur 15 Oeste 0 -- -- 50
2019-06-06 10:00:00 11.4 6 Sudoeste 12 Sudoeste 0 -- -- 57
2019-06-06 09:00:00 9 8 Sudoeste 13 Sur 0 -- -- 66
2019-06-06 08:00:00 6.7 8 Sudoeste 15 Sudoeste 0 -- -- 74
2019-06-06 07:00:00 5.2 8 Sudoeste 12 Sudoeste 0 -- -- 79
2019-06-06 06:00:00 7 7 Sudoeste 11 Oeste 0 -- -- 73
2019-06-06 05:00:00 8.1 6 Oeste 11 Oeste 0 -- -- 67
2019-06-06 04:00:00 8.1 9 Sudoeste 13 Sudoeste 0 -- -- 67
2019-06-06 03:00:00 9.3 8 Oeste 16 Oeste 0 -- -- 61
2019-06-06 02:00:00 11 7 Oeste 14 Oeste 0 -- -- 54
2019-06-06 01:00:00 11.7 6 Oeste 18 Oeste 0 -- -- 52
2019-06-06 00:00:00 12.4 9 Noroeste 19 Oeste 0 -- -- 49
2019-06-05 23:00:00 12.8 11 Noroeste 23 Noroeste 0 -- -- 47
2019-06-05 22:00:00 14.1 15 Noroeste 35 Noroeste 0 -- -- 43
2019-06-05 21:00:00 15.2 12 Oeste 30 Noroeste 0 -- -- 41
2019-06-05 20:00:00 16.1 15 Oeste 29 Oeste 0 -- -- 38
2019-06-05 19:00:00 17.2 17 Oeste 41 Oeste 0 -- -- 33
2019-06-05 18:00:00 18.4 22 Noroeste 38 Oeste 0 -- -- 30
2019-06-05 17:00:00 19.1 18 Oeste 37 Noroeste 0 -- -- 27
2019-06-05 16:00:00 17.3 15 Oeste 31 Oeste 0 -- -- 35
2019-06-05 15:00:00 16.6 12 Noroeste 29 Oeste 0 -- -- 40
2019-06-05 14:00:00 16.1 14 Noroeste 28 Noroeste 0 -- -- 43
2019-06-05 13:00:00 14.8 14 Noroeste 28 Noroeste 0 -- -- 50
2019-06-05 12:00:00 13.8 14 Noroeste 29 Noroeste 0 -- -- 54
2019-06-05 11:00:00 12.1 15 Noroeste 32 Noroeste 0 -- -- 63
2019-06-05 10:00:00 10.3 13 Oeste 26 Oeste 0 -- -- 79
2019-06-05 09:00:00 9.1 14 Oeste 26 Oeste 0 -- -- 81
2019-06-05 08:00:00 7.8 13 Oeste 26 Oeste 0 -- -- 87
2019-06-05 07:00:00 8.2 11 Oeste 21 Oeste 0 -- -- 87
2019-06-05 06:00:00 9.2 9 Oeste 18 Oeste 0 -- -- 87
2019-06-05 05:00:00 9.3 8 Oeste 21 Oeste 0 -- -- 90
2019-06-05 04:00:00 9.4 13 Noroeste 33 Oeste 2.4 -- -- 90
2019-06-05 03:00:00 10.4 14 Noroeste 34 Noroeste 2.2 -- -- 83
2019-06-05 02:00:00 13.5 23 Noroeste 39 Noroeste 0 -- -- 58
2019-06-05 01:00:00 15.5 13 Noroeste 25 Noroeste 0 -- -- 50
2019-06-05 00:00:00 15.7 10 Noroeste 27 Noroeste 0 -- -- 54
2019-06-04 23:00:00 16.7 13 Noroeste 22 Noroeste 0 -- -- 53
2019-06-04 22:00:00 17.5 10 Noroeste 25 Noroeste 0 -- -- 54
2019-06-04 21:00:00 18.3 12 Oeste 33 Noroeste 0 -- -- 53
2019-06-04 20:00:00 19 14 Oeste 36 Oeste 0 -- -- 53
2019-06-04 19:00:00 20.1 19 Noroeste 46 Noroeste 0 -- -- 52
2019-06-04 18:00:00 23.1 15 Oeste 37 Oeste 0 -- -- 37
2019-06-04 17:00:00 24.6 20 Oeste 41 Oeste 0 -- -- 34
2019-06-04 16:00:00 23.9 17 Oeste 41 Noroeste 0 -- -- 36
2019-06-04 15:00:00 22.9 21 Oeste 37 Oeste 0 -- -- 37
2019-06-04 14:00:00 22.1 17 Oeste 33 Noroeste 0 -- -- 36
2019-06-04 13:00:00 20.4 17 Oeste 32 Oeste 0 -- -- 42
2019-06-04 12:00:00 19.2 18 Oeste 32 Sudoeste 0 -- -- 51
2019-06-04 11:00:00 17.2 20 Sudoeste 30 Sudoeste 0 -- -- 59
2019-06-04 10:00:00 15.4 15 Oeste 29 Oeste 0 -- -- 68
2019-06-04 09:00:00 13.7 16 Oeste 27 Oeste 0 -- -- 75
2019-06-04 08:00:00 12.8 10 Sudoeste 19 Oeste 0 -- -- 84
2019-06-04 07:00:00 11.8 11 Sudoeste 15 Sudoeste 0 -- -- 87
2019-06-04 06:00:00 12.8 8 Oeste 13 Oeste 0 -- -- 83
2019-06-04 05:00:00 13.2 11 Sudoeste 15 Sudoeste 0 -- -- 80
2019-06-04 04:00:00 14.2 9 Oeste 15 Sudoeste 0 -- -- 78
2019-06-04 03:00:00 15.7 8 Oeste 13 Oeste 0 -- -- 70
2019-06-04 02:00:00 17.6 9 Oeste 14 Sudoeste 0 -- -- 60
2019-06-04 01:00:00 19.5 8 Oeste 18 Oeste 0 -- -- 47
2019-06-04 00:00:00 21.8 13 Oeste 36 Sudoeste 0 -- -- 32
2019-06-03 23:00:00 23.1 22 Sudoeste 33 Sudoeste 0 -- -- 24
2019-06-03 22:00:00 25 23 Sudoeste 38 Sudoeste 0 -- -- 20
2019-06-03 21:00:00 27.5 30 Sudoeste 41 Sudoeste 0 -- -- 17
2019-06-03 20:00:00 29 29 Sudoeste 47 Sudoeste 0 -- -- 18
2019-06-03 19:00:00 30.5 29 Sudoeste 44 Sudoeste 0 -- -- 18
2019-06-03 18:00:00 31.2 19 Sudoeste 45 Sudoeste 0 -- -- 17
2019-06-03 17:00:00 30.5 17 Oeste 38 Oeste 0 -- -- 16
2019-06-03 16:00:00 29.9 18 Oeste 42 Oeste 0 -- -- 17
2019-06-03 15:00:00 29.1 17 Oeste 34 Sudoeste 0 -- -- 17
2019-06-03 14:00:00 28.5 14 Oeste 23 Sudoeste 0 -- -- 20
2019-06-03 13:00:00 26.9 9 Oeste 28 Sudoeste 0 -- -- 23
2019-06-03 12:00:00 24.4 9 Sudoeste 22 Sudoeste 0 -- -- 26
2019-06-03 11:00:00 22.9 8 Sudoeste 17 Sudoeste 0 -- -- 34
2019-06-03 10:00:00 20.4 11 Sudoeste 16 Sudoeste 0 -- -- 41
2019-06-03 09:00:00 18.4 6 Sudoeste 12 Sur 0 -- -- 45
2019-06-03 08:00:00 14.3 9 Sudoeste 17 Sur 0 -- -- 55
2019-06-03 07:00:00 14.3 8 Sur 12 Sudoeste 0 -- -- 53
2019-06-03 06:00:00 14.9 9 Sudoeste 15 Sudoeste 0 -- -- 52
2019-06-03 05:00:00 15.3 13 Sudoeste 15 Oeste 0 -- -- 48
2019-06-03 04:00:00 16 11 Sudoeste 18 Sudoeste 0 -- -- 46
2019-06-03 03:00:00 16.6 9 Sudoeste 14 Sudoeste 0 -- -- 45
2019-06-03 02:00:00 17.1 12 Sudoeste 14 Sudoeste 0 -- -- 43
2019-06-03 01:00:00 20.9 7 Noroeste 15 Noroeste 0 -- -- 33
2019-06-03 00:00:00 22.2 10 Noroeste 18 Noroeste 0 -- -- 30
2019-06-02 23:00:00 23.6 7 Noroeste 13 Noroeste 0 -- -- 29
2019-06-02 22:00:00 25.3 6 Noroeste 17 Noroeste 0 -- -- 27
2019-06-02 21:00:00 27.5 12 Noroeste 24 Noroeste 0 -- -- 24
2019-06-02 20:00:00 29.2 15 Noroeste 37 Noroeste 0 -- -- 22
2019-06-02 19:00:00 29.7 20 Noroeste 34 Noroeste 0 -- -- 21
2019-06-02 18:00:00 30.8 17 Oeste 33 Sudoeste 0 -- -- 20
2019-06-02 17:00:00 32 15 Oeste 39 Oeste 0 -- -- 19
2019-06-02 16:00:00 31.3 13 Oeste 39 Oeste 0 -- -- 21
2019-06-02 15:00:00 31.3 19 Oeste 38 Sudoeste 0 -- -- 22
2019-06-02 14:00:00 30.2 15 Oeste 30 Oeste 0 -- -- 22
2019-06-02 13:00:00 30.1 9 Oeste 20 Sudoeste 0 -- -- 23
2019-06-02 12:00:00 27.9 7 Oeste 20 Oeste 0 -- -- 24
2019-06-02 11:00:00 26.1 11 Oeste 18 Oeste 0 -- -- 28
2019-06-02 10:00:00 23.2 9 Oeste 19 Sudoeste 0 -- -- 35
2019-06-02 09:00:00 20 10 Sudoeste 21 Sudoeste 0 -- -- 42
2019-06-02 08:00:00 17 17 Sudoeste 25 Sudoeste 0 -- -- 47
2019-06-02 07:00:00 15.4 18 Sudoeste 21 Sudoeste 0 -- -- 51
2019-06-02 06:00:00 15.2 17 Sudoeste 22 Sudoeste 0 -- -- 53
2019-06-02 05:00:00 15.3 16 Sudoeste 20 Sudoeste 0 -- -- 50
2019-06-02 04:00:00 16 13 Sudoeste 15 Sudoeste 0 -- -- 50
2019-06-02 03:00:00 17.9 5 Oeste 9 Oeste 0 -- -- 43
2019-06-02 02:00:00 18.6 5 Oeste 14 Sudoeste 0 -- -- 38
2019-06-02 01:00:00 18.5 11 Sudoeste 19 Sudoeste 0 -- -- 35
2019-06-02 00:00:00 24.7 0 Calma 4 Norte 0 -- -- 23
2019-06-01 23:00:00 25.8 3 Norte 5 Norte 0 -- -- 23
2019-06-01 22:00:00 27.7 4 Norte 9 Norte 0 -- -- 21
2019-06-01 21:00:00 29.7 6 Norte 18 Norte 0 -- -- 19
2019-06-01 20:00:00 31.1 12 Norte 23 Noroeste 0 -- -- 18
2019-06-01 19:00:00 32.3 8 Noroeste 24 Norte 0 -- -- 17
2019-06-01 18:00:00 32.9 9 Norte 22 Noroeste 0 -- -- 17
2019-06-01 17:00:00 32.6 15 Norte 27 Noroeste 0 -- -- 17
2019-06-01 16:00:00 32.4 10 Noroeste 26 Norte 0 -- -- 17
2019-06-01 15:00:00 31.8 8 Norte 27 Norte 0 -- -- 17
2019-06-01 14:00:00 31.1 12 Noroeste 24 Noroeste 0 -- -- 17
2019-06-01 13:00:00 29.9 7 Oeste 14 Norte 0 -- -- 20
2019-06-01 12:00:00 27.4 5 Noroeste 13 Noroeste 0 -- -- 26
2019-06-01 11:00:00 24.7 2 Noroeste 8 Sudeste 0 -- -- 28
2019-06-01 10:00:00 20.7 2 Noroeste 7 Sur 0 -- -- 34
2019-06-01 09:00:00 17.4 2 Sur 6 Este 0 -- -- 37
2019-06-01 08:00:00 14 0 Calma 10 Sur 0 -- -- 44
2019-06-01 07:00:00 11.3 6 Sudoeste 13 Sur 0 -- -- 48
2019-06-01 06:00:00 11.5 8 Sudeste 17 Este 0 -- -- 49
2019-06-01 05:00:00 13.2 9 Este 14 Sudeste 0 -- -- 44
2019-06-01 04:00:00 14.7 12 Sudeste 24 Este 0 -- -- 41
2019-06-01 03:00:00 17.5 14 Este 17 Este 0 -- -- 36
2019-06-01 02:00:00 19.3 14 Este 24 Sudeste 0 -- -- 32
2019-06-01 01:00:00 19.9 14 Sudeste 18 Este 0 -- -- 32
2019-06-01 00:00:00 22.8 9 Este 18 Este 0 -- -- 27
2019-05-31 23:00:00 24.7 6 Norte 9 Norte 0 -- -- 24
2019-05-31 22:00:00 26.4 6 Norte 14 Noroeste 0 -- -- 21
2019-05-31 21:00:00 30.3 6 Norte 13 Norte 0 -- -- 17
2019-05-31 20:00:00 31.3 4 Noroeste 14 Norte 0 -- -- 16
2019-05-31 19:00:00 31.7 8 Norte 21 Norte 0 -- -- 16
2019-05-31 18:00:00 31.4 8 Este 20 Nordeste 0 -- -- 17
2019-05-31 17:00:00 31.3 9 Sur 20 Este 0 -- -- 15
2019-05-31 16:00:00 30.8 10 Este 22 Este 0 -- -- 17
2019-05-31 15:00:00 30 11 Nordeste 18 Nordeste 0 -- -- 20
2019-05-31 14:00:00 29 9 Nordeste 26 Norte 0 -- -- 22
2019-05-31 13:00:00 27.4 7 Noroeste 21 Norte 0 -- -- 22
2019-05-31 12:00:00 25.8 7 Nordeste 17 Norte 0 -- -- 29
2019-05-31 11:00:00 23.4 11 Nordeste 17 Nordeste 0 -- -- 33
2019-05-31 10:00:00 19.2 5 Este 13 Este 0 -- -- 41
2019-05-31 09:00:00 16.4 6 Este 12 Este 0 -- -- 45
2019-05-31 08:00:00 13.6 7 Este 13 Este 0 -- -- 50
2019-05-31 07:00:00 12.8 7 Este 9 Este 0 -- -- 53
2019-05-31 06:00:00 13 7 Este 9 Este 0 -- -- 53
2019-05-31 05:00:00 13 5 Nordeste 12 Este 0 -- -- 54
2019-05-31 04:00:00 13.9 9 Este 17 Este 0 -- -- 51
2019-05-31 03:00:00 15.4 14 Este 19 Este 0 -- -- 47
2019-05-31 02:00:00 16.3 14 Este 17 Este 0 -- -- 45
2019-05-31 01:00:00 17.9 14 Este 16 Este 0 -- -- 41
2019-05-31 00:00:00 19.8 12 Este 22 Este 0 -- -- 38
2019-05-30 23:00:00 21.4 9 Nordeste 19 Nordeste 0 -- -- 34
2019-05-30 22:00:00 23.8 14 Nordeste 28 Nordeste 0 -- -- 30
2019-05-30 21:00:00 26.8 18 Nordeste 28 Nordeste 0 -- -- 26
2019-05-30 20:00:00 28.2 18 Nordeste 30 Nordeste 0 -- -- 23
2019-05-30 19:00:00 29.2 17 Nordeste 31 Nordeste 0 -- -- 21
2019-05-30 18:00:00 29.4 11 Nordeste 28 Nordeste 0 -- -- 21
2019-05-30 17:00:00 29.4 14 Norte 32 Norte 0 -- -- 20
2019-05-30 16:00:00 28.7 15 Nordeste 32 Noroeste 0 -- -- 21
2019-05-30 15:00:00 28.2 9 Nordeste 25 Nordeste 0 -- -- 24
2019-05-30 14:00:00 26.1 15 Norte 24 Norte 0 -- -- 26
2019-05-30 13:00:00 24.4 9 Norte 22 Norte 0 -- -- 33
2019-05-30 12:00:00 22.1 13 Nordeste 22 Nordeste 0 -- -- 37
2019-05-30 11:00:00 18.8 4 Este 12 Este 0 -- -- 45
2019-05-30 10:00:00 15.3 7 Sudeste 15 Este 0 -- -- 54
2019-05-30 09:00:00 11.9 10 Este 13 Este 0 -- -- 63
2019-05-30 08:00:00 11.1 8 Este 12 Este 0 -- -- 67
2019-05-30 07:00:00 7.5 3 Este 7 Este 0 -- -- 79
2019-05-30 06:00:00 7.8 4 Este 8 Nordeste 0 -- -- 77
2019-05-30 05:00:00 9.6 4 Este 8 Este 0 -- -- 72
2019-05-30 04:00:00 9.7 2 Sur 8 Este 0 -- -- 72
2019-05-30 03:00:00 11.4 6 Este 12 Este 0 -- -- 68
2019-05-30 02:00:00 12.4 8 Este 13 Este 0 -- -- 65
2019-05-30 01:00:00 14.1 8 Nordeste 14 Nordeste 0 -- -- 59
2019-05-30 00:00:00 14.8 9 Este 15 Este 0 -- -- 57
2019-05-29 23:00:00 16.6 11 Este 22 Este 0 -- -- 52
2019-05-29 22:00:00 18.1 15 Este 25 Nordeste 0 -- -- 47
2019-05-29 21:00:00 20.6 18 Nordeste 33 Nordeste 0 -- -- 42
2019-05-29 20:00:00 21.7 22 Nordeste 37 Nordeste 0 -- -- 38
2019-05-29 19:00:00 22.4 22 Nordeste 48 Nordeste 0 -- -- 35
2019-05-29 18:00:00 22.8 21 Nordeste 40 Este 0 -- -- 34
2019-05-29 17:00:00 22.6 21 Norte 35 Nordeste 0 -- -- 34
2019-05-29 16:00:00 21.9 18 Nordeste 36 Este 0 -- -- 37
2019-05-29 15:00:00 21.3 19 Nordeste 40 Nordeste 0 -- -- 39
2019-05-29 14:00:00 19.8 25 Nordeste 42 Nordeste 0 -- -- 42
2019-05-29 13:00:00 19 19 Nordeste 31 Nordeste 0 -- -- 42
2019-05-29 12:00:00 17.5 15 Este 32 Norte 0 -- -- 45
2019-05-29 11:00:00 15.3 14 Nordeste 32 Nordeste 0 -- -- 52
2019-05-29 10:00:00 12.7 13 Nordeste 21 Nordeste 0 -- -- 58
2019-05-29 09:00:00 10.5 5 Este 12 Este 0 -- -- 63
2019-05-29 08:00:00 8.5 4 Sudeste 7 Nordeste 0 -- -- 70
2019-05-29 07:00:00 6.9 4 Nordeste 8 Nordeste 0 -- -- 75
2019-05-29 06:00:00 7.3 3 Norte 12 Nordeste 0 -- -- 71
2019-05-29 05:00:00 8 8 Nordeste 14 Nordeste 0 -- -- 70
2019-05-29 04:00:00 8.2 9 Nordeste 15 Nordeste 0 -- -- 68
2019-05-29 03:00:00 8.8 9 Este 19 Nordeste 0 -- -- 64
2019-05-29 02:00:00 9.6 15 Nordeste 31 Nordeste 0 -- -- 61
2019-05-29 01:00:00 10.6 22 Nordeste 32 Nordeste 0 -- -- 58
2019-05-29 00:00:00 12 14 Nordeste 24 Este 0 -- -- 51
2019-05-28 23:00:00 13.5 18 Nordeste 34 Este 0 -- -- 44
2019-05-28 22:00:00 15.2 22 Nordeste 39 Este 0 -- -- 45
2019-05-28 21:00:00 18.5 24 Nordeste 37 Nordeste 0 -- -- 41
2019-05-28 20:00:00 21.9 10 Norte 24 Nordeste 0 -- -- 31
2019-05-28 19:00:00 22.2 9 Norte 28 Nordeste 0 -- -- 32
2019-05-28 18:00:00 21.9 16 Nordeste 33 Nordeste 0 -- -- 33
2019-05-28 17:00:00 22 19 Nordeste 32 Norte 0 -- -- 32
2019-05-28 16:00:00 21.7 14 Norte 30 Norte 0 -- -- 31
2019-05-28 15:00:00 20.8 13 Norte 30 Noroeste 0 -- -- 31
2019-05-28 14:00:00 19.3 16 Norte 27 Norte 0 -- -- 32
2019-05-28 13:00:00 17.9 16 Norte 27 Nordeste 0 -- -- 36
2019-05-28 12:00:00 16.9 14 Nordeste 26 Nordeste 0 -- -- 40
2019-05-28 11:00:00 14.9 14 Nordeste 30 Nordeste 0 -- -- 48
2019-05-28 10:00:00 13.1 13 Nordeste 26 Nordeste 0 -- -- 54
2019-05-28 09:00:00 11.2 12 Nordeste 23 Nordeste 0 -- -- 61
2019-05-28 08:00:00 9.2 15 Nordeste 28 Nordeste 0 -- -- 69
2019-05-28 07:00:00 8.4 13 Nordeste 21 Nordeste 0 -- -- 74
2019-05-28 06:00:00 8.9 14 Nordeste 20 Nordeste 0 -- -- 74
2019-05-28 05:00:00 9.7 13 Nordeste 27 Nordeste 0 -- -- 73
2019-05-28 04:00:00 10.3 15 Nordeste 24 Nordeste 0 -- -- 70
2019-05-28 03:00:00 11.2 15 Nordeste 24 Nordeste 0 -- -- 68
2019-05-28 02:00:00 12.1 14 Nordeste 30 Nordeste 0 -- -- 65
2019-05-28 01:00:00 13.3 14 Nordeste 28 Nordeste 0 -- -- 64
2019-05-28 00:00:00 14.6 17 Nordeste 37 Nordeste 0 -- -- 63